Time;durP1;ratioP1;P1;durP2;ratioP2;P2;SDS_P1;SDS_P2;PMS_P1;PMS_P2;Temp;Humidity;BMP_temperature;BMP_pressure;BME280_temperature;BME280_humidity;BME280_pressure;Samples;Min_cycle;Max_cycle;Signal;HPM_P1;HPM_P2
2023/04/01 00:01:30;;;;;;;15.50;6.60;;;9.40;99.90;;;;;;6285952;22;20463;-83
2023/04/01 00:03:56;;;;;;;15.02;6.20;;;9.40;99.90;;;;;;6276751;22;20035;-82
2023/04/01 00:06:22;;;;;;;14.32;6.40;;;10.10;99.90;;;;;;6275865;22;20377;-82
2023/04/01 00:08:47;;;;;;;14.77;5.93;;;9.40;99.90;;;;;;6276301;22;20015;-82
2023/04/01 00:11:14;;;;;;;15.13;5.80;;;9.40;99.90;;;;;;6275557;22;20015;-82
2023/04/01 00:13:40;;;;;;;14.75;6.50;;;10.10;99.90;;;;;;6277636;22;20427;-83
2023/04/01 00:16:07;;;;;;;14.50;6.20;;;9.40;99.90;;;;;;6275553;22;20034;-83
2023/04/01 00:18:32;;;;;;;15.35;6.18;;;10.20;99.90;;;;;;6275145;22;20320;-82
2023/04/01 00:20:58;;;;;;;13.68;6.10;;;9.30;99.90;;;;;;6275634;22;20062;-83
2023/04/01 00:23:24;;;;;;;14.95;6.60;;;9.40;99.90;;;;;;6277438;22;20024;-82
2023/04/01 00:25:49;;;;;;;13.93;6.10;;;9.40;99.90;;;;;;6275524;22;20014;-82
2023/04/01 00:28:17;;;;;;;14.88;6.15;;;9.40;99.90;;;;;;6277735;22;20050;-82
2023/04/01 00:30:43;;;;;;;13.75;5.97;;;9.40;99.90;;;;;;6275739;22;20019;-83
2023/04/01 00:33:09;;;;;;;15.95;6.20;;;10.00;99.90;;;;;;6274900;22;20015;-82
2023/04/01 00:35:35;;;;;;;18.45;6.50;;;9.40;99.90;;;;;;6275983;22;20016;-82
2023/04/01 00:38:00;;;;;;;16.33;6.47;;;9.30;99.90;;;;;;6276891;22;20041;-82
2023/04/01 00:40:32;;;;;;;15.95;6.28;;;9.30;99.90;;;;;;6275291;22;20316;-82
2023/04/01 00:42:58;;;;;;;14.73;6.32;;;9.40;99.90;;;;;;6277154;22;20482;-83
2023/04/01 00:45:24;;;;;;;13.48;5.93;;;9.40;99.90;;;;;;6275693;22;20019;-82
2023/04/01 00:47:50;;;;;;;12.55;5.63;;;9.40;99.90;;;;;;6275254;22;20466;-82
2023/04/01 00:50:16;;;;;;;12.93;5.85;;;9.40;99.90;;;;;;6275365;22;20081;-82
2023/04/01 00:52:42;;;;;;;13.60;6.03;;;9.40;99.90;;;;;;6274997;22;20371;-83
2023/04/01 00:55:09;;;;;;;14.02;6.00;;;9.40;99.90;;;;;;6275378;22;20030;-82
2023/04/01 00:57:37;;;;;;;14.60;6.82;;;9.40;99.90;;;;;;6275740;22;20019;-82
2023/04/01 01:00:09;;;;;;;17.63;5.97;;;9.40;99.90;;;;;;6276848;22;20087;-83
2023/04/01 01:02:34;;;;;;;14.75;6.00;;;9.30;99.90;;;;;;6275375;22;20023;-83
2023/04/01 01:05:00;;;;;;;14.45;5.95;;;10.40;99.90;;;;;;6277168;22;20339;-83
2023/04/01 01:08:04;;;;;;;15.85;6.03;;;9.40;99.90;;;;;;6276978;22;20056;-82
2023/04/01 01:10:39;;;;;;;17.20;5.65;;;9.40;99.90;;;;;;6277296;22;20016;-83
2023/04/01 01:13:25;;;;;;;15.13;6.10;;;9.30;99.90;;;;;;6277225;22;20082;-83
2023/04/01 01:16:12;;;;;;;14.82;5.78;;;9.40;99.90;;;;;;6276187;22;20022;-83
2023/04/01 01:18:49;;;;;;;13.95;5.53;;;9.30;99.90;;;;;;6275718;22;20016;-82
2023/04/01 01:21:46;;;;;;;13.75;5.20;;;9.40;99.90;;;;;;6274733;22;20333;-83
2023/04/01 01:24:51;;;;;;;13.95;4.80;;;9.30;99.90;;;;;;6278598;22;20016;-82
2023/04/01 01:27:19;;;;;;;11.48;4.50;;;9.30;99.90;;;;;;6275347;22;20460;-82
2023/04/01 01:30:07;;;;;;;10.85;4.50;;;9.30;99.90;;;;;;6275173;22;20011;-82
2023/04/01 01:32:55;;;;;;;13.68;4.53;;;9.30;99.90;;;;;;6285488;22;20016;-82
2023/04/01 01:35:27;;;;;;;16.38;5.47;;;9.30;99.90;;;;;;6277079;22;20020;-82
2023/04/01 01:38:16;;;;;;;14.70;4.93;;;9.30;99.90;;;;;;6275087;22;20043;-82
2023/04/01 01:40:45;;;;;;;13.07;5.60;;;9.30;99.90;;;;;;6275201;22;20022;-83
2023/04/01 01:43:16;;;;;;;14.82;5.80;;;9.30;99.90;;;;;;6274048;22;20016;-83
2023/04/01 01:45:49;;;;;;;15.93;6.10;;;9.30;99.90;;;;;;6275424;22;20351;-82
2023/04/01 01:48:16;;;;;;;15.35;6.30;;;9.40;99.90;;;;;;6274945;22;20054;-82
2023/04/01 01:50:44;;;;;;;15.10;6.20;;;9.30;99.90;;;;;;6274638;22;20069;-82
2023/04/01 01:53:12;;;;;;;16.85;5.68;;;9.30;99.90;;;;;;6276432;22;20027;-82
2023/04/01 01:55:40;;;;;;;20.23;6.45;;;9.30;99.90;;;;;;6274945;22;20412;-83
2023/04/01 01:58:40;;;;;;;14.57;6.20;;;9.30;99.90;;;;;;6273986;22;20018;-82
2023/04/01 02:01:10;;;;;;;13.80;5.82;;;9.30;99.90;;;;;;6273696;22;20034;-82
2023/04/01 02:03:40;;;;;;;14.10;6.03;;;9.30;99.90;;;;;;6274722;22;20058;-82
2023/04/01 02:06:11;;;;;;;14.75;6.78;;;9.30;99.90;;;;;;6274966;22;20015;-82
2023/04/01 02:08:42;;;;;;;18.57;6.63;;;9.30;99.90;;;;;;6276183;22;20065;-82
2023/04/01 02:11:11;;;;;;;17.70;6.67;;;9.30;99.90;;;;;;6275852;22;20019;-82
2023/04/01 02:13:53;;;;;;;20.60;6.87;;;9.30;99.90;;;;;;6277125;22;20047;-82
2023/04/01 02:16:45;;;;;;;17.10;6.87;;;9.30;99.90;;;;;;6274246;22;20018;-82
2023/04/01 02:19:13;;;;;;;19.77;7.27;;;9.30;99.90;;;;;;6273763;22;20020;-82
2023/04/01 02:21:40;;;;;;;24.20;7.87;;;9.30;99.90;;;;;;6276235;22;20054;-82
2023/04/01 02:24:10;;;;;;;17.13;6.93;;;9.30;99.90;;;;;;6273959;22;20012;-82
2023/04/01 02:26:36;;;;;;;17.48;7.13;;;9.30;99.90;;;;;;6273834;22;20557;-82
2023/04/01 02:29:04;;;;;;;17.63;6.65;;;9.30;99.90;;;;;;6276080;22;20020;-82
2023/04/01 02:31:31;;;;;;;21.33;6.78;;;9.30;99.90;;;;;;6276291;22;20007;-82
2023/04/01 02:33:57;;;;;;;21.88;6.88;;;9.30;99.90;;;;;;6275957;22;20045;-83
2023/04/01 02:36:23;;;;;;;17.65;6.85;;;9.30;99.90;;;;;;6275987;22;20090;-82
2023/04/01 02:38:50;;;;;;;18.70;7.05;;;9.40;99.90;;;;;;6274419;22;20091;-82
2023/04/01 02:41:16;;;;;;;19.17;7.28;;;9.20;99.90;;;;;;6273624;22;20019;-82
2023/04/01 02:43:42;;;;;;;19.02;7.18;;;9.30;99.90;;;;;;6274617;22;20114;-82
2023/04/01 02:46:07;;;;;;;20.52;7.20;;;9.20;99.90;;;;;;6275948;22;20012;-83
2023/04/01 02:48:33;;;;;;;19.30;7.75;;;9.20;99.90;;;;;;6274737;22;20451;-82
2023/04/01 02:50:59;;;;;;;18.75;7.40;;;10.00;99.90;;;;;;6275687;22;20019;-82
2023/04/01 02:53:25;;;;;;;17.65;7.05;;;9.20;99.90;;;;;;6275361;22;20023;-82
2023/04/01 02:55:51;;;;;;;18.60;7.43;;;9.20;99.90;;;;;;6276160;22;20106;-83
2023/04/01 02:58:18;;;;;;;18.23;6.97;;;9.30;99.90;;;;;;6275508;22;20347;-82
2023/04/01 03:00:43;;;;;;;18.75;7.00;;;9.20;99.90;;;;;;6275649;22;20443;-82
2023/04/01 03:03:13;;;;;;;17.55;7.00;;;10.20;99.90;;;;;;6276799;22;20134;-83
2023/04/01 03:05:39;;;;;;;19.63;6.90;;;9.20;99.90;;;;;;6276651;22;20012;-82
2023/04/01 03:08:06;;;;;;;19.90;7.50;;;9.30;99.90;;;;;;6275313;22;20448;-83
2023/04/01 03:10:31;;;;;;;21.83;7.95;;;9.20;99.90;;;;;;6276406;22;20018;-82
2023/04/01 03:12:57;;;;;;;18.70;6.75;;;9.20;99.90;;;;;;6274247;22;20090;-82
2023/04/01 03:15:23;;;;;;;22.42;7.50;;;9.20;99.90;;;;;;6275559;22;20073;-82
2023/04/01 03:17:48;;;;;;;19.92;6.90;;;9.30;99.90;;;;;;6274507;22;20016;-83
2023/04/01 03:20:14;;;;;;;19.05;7.25;;;9.20;99.90;;;;;;6273905;22;20090;-83
2023/04/01 03:22:40;;;;;;;22.27;7.25;;;9.20;99.90;;;;;;6274173;22;20007;-83
2023/04/01 03:25:07;;;;;;;20.20;6.78;;;9.20;99.90;;;;;;6276245;22;20037;-82
2023/04/01 03:27:35;;;;;;;17.98;6.88;;;9.20;99.90;;;;;;6275900;22;20440;-83
2023/04/01 03:30:01;;;;;;;17.13;6.70;;;9.20;99.90;;;;;;6273620;22;20020;-82
2023/04/01 03:32:27;;;;;;;18.63;6.57;;;9.20;99.90;;;;;;6276417;22;20309;-82
2023/04/01 03:34:53;;;;;;;18.65;6.55;;;9.30;99.90;;;;;;6274297;22;20400;-83
2023/04/01 03:37:18;;;;;;;20.30;6.78;;;9.30;99.90;;;;;;6274905;22;20047;-82
2023/04/01 03:39:45;;;;;;;18.67;6.70;;;9.30;99.90;;;;;;6277223;22;20020;-83
2023/04/01 03:42:11;;;;;;;16.25;6.65;;;9.30;99.90;;;;;;6278153;22;20026;-83
2023/04/01 03:44:37;;;;;;;18.00;7.18;;;10.20;99.90;;;;;;6277854;22;20037;-83
2023/04/01 03:47:03;;;;;;;18.27;6.50;;;9.30;99.90;;;;;;6275853;22;20016;-82
2023/04/01 03:49:28;;;;;;;20.48;6.68;;;9.30;99.90;;;;;;6275664;22;20024;-83
2023/04/01 03:51:54;;;;;;;16.55;6.30;;;9.20;99.90;;;;;;6276114;22;20027;-82
2023/04/01 03:54:20;;;;;;;17.88;6.35;;;9.30;99.90;;;;;;6277735;22;20086;-83
2023/04/01 03:56:46;;;;;;;20.15;6.60;;;9.30;99.90;;;;;;6277453;22;20097;-82
2023/04/01 03:59:12;;;;;;;19.20;6.88;;;9.30;99.90;;;;;;6277852;22;20082;-82
2023/04/01 04:01:38;;;;;;;14.63;5.63;;;9.80;99.90;;;;;;6277753;22;20007;-82
2023/04/01 04:04:04;;;;;;;18.17;6.05;;;9.30;99.90;;;;;;6274241;22;20094;-83
2023/04/01 04:06:30;;;;;;;15.68;6.15;;;9.60;99.90;;;;;;6275303;22;20455;-82
2023/04/01 04:08:55;;;;;;;15.25;6.30;;;9.20;99.90;;;;;;6277530;22;20055;-82
2023/04/01 04:11:21;;;;;;;17.00;6.50;;;9.20;99.90;;;;;;6276616;22;20018;-83
2023/04/01 04:13:47;;;;;;;17.95;6.05;;;9.30;99.90;;;;;;6278253;22;20012;-82
2023/04/01 04:16:14;;;;;;;20.05;7.07;;;9.20;99.90;;;;;;6275452;22;20050;-83
2023/04/01 04:18:40;;;;;;;17.92;6.65;;;9.20;99.90;;;;;;6275452;22;20023;-82
2023/04/01 04:21:06;;;;;;;17.98;6.50;;;10.30;99.90;;;;;;6275467;22;20008;-83
2023/04/01 04:23:33;;;;;;;18.10;6.85;;;9.20;99.90;;;;;;6275756;22;20023;-83
2023/04/01 04:26:00;;;;;;;17.50;6.60;;;9.20;99.90;;;;;;6275261;22;20015;-82
2023/04/01 04:28:27;;;;;;;17.95;6.68;;;9.30;99.90;;;;;;6281116;22;20038;-83
2023/04/01 04:30:53;;;;;;;16.27;6.43;;;9.20;99.90;;;;;;6278553;22;20486;-82
2023/04/01 04:33:19;;;;;;;18.08;7.03;;;9.30;99.90;;;;;;6277881;22;20012;-83
2023/04/01 04:35:45;;;;;;;19.88;7.30;;;9.20;99.90;;;;;;6277769;22;20472;-82
2023/04/01 04:38:10;;;;;;;21.35;7.88;;;9.20;99.90;;;;;;6277824;22;20054;-83
2023/04/01 04:40:37;;;;;;;18.58;7.45;;;9.20;99.90;;;;;;6275562;22;20432;-82
2023/04/01 04:43:03;;;;;;;19.88;7.40;;;9.20;99.90;;;;;;6275164;22;20016;-82
2023/04/01 04:45:29;;;;;;;24.50;9.00;;;9.30;99.90;;;;;;6276014;22;20012;-82
2023/04/01 04:47:56;;;;;;;23.42;8.50;;;9.20;99.90;;;;;;6275235;22;20065;-83
2023/04/01 04:50:21;;;;;;;22.80;9.20;;;9.20;99.90;;;;;;6275213;22;20020;-82
2023/04/01 04:52:47;;;;;;;20.95;8.93;;;9.30;99.90;;;;;;6276642;22;20055;-83
2023/04/01 04:55:14;;;;;;;22.83;9.27;;;9.30;99.90;;;;;;6277159;22;20015;-83
2023/04/01 04:57:40;;;;;;;24.33;9.68;;;9.30;99.90;;;;;;6277429;22;20024;-82
2023/04/01 05:00:07;;;;;;;23.60;9.48;;;9.30;99.90;;;;;;6274730;22;20011;-83
2023/04/01 05:02:33;;;;;;;24.02;9.60;;;9.20;99.90;;;;;;6277664;22;20027;-82
2023/04/01 05:04:59;;;;;;;27.50;10.30;;;9.30;99.90;;;;;;6276909;22;20015;-82
2023/04/01 05:07:24;;;;;;;28.77;11.50;;;9.20;99.90;;;;;;6274582;22;20016;-83
2023/04/01 05:09:50;;;;;;;27.50;10.93;;;9.70;99.90;;;;;;6276903;22;20039;-83
2023/04/01 05:12:16;;;;;;;29.75;11.25;;;9.20;99.90;;;;;;6276340;22;20023;-83
2023/04/01 05:14:41;;;;;;;28.88;10.95;;;9.30;99.90;;;;;;6275058;22;20019;-83
2023/04/01 05:17:11;;;;;;;31.20;11.73;;;10.30;99.90;;;;;;6275368;22;20143;-82
2023/04/01 05:19:37;;;;;;;29.77;12.32;;;10.30;99.90;;;;;;6277355;22;20050;-82
2023/04/01 05:22:03;;;;;;;30.98;11.95;;;9.30;99.90;;;;;;6276484;22;20015;-82
2023/04/01 05:24:29;;;;;;;38.60;12.65;;;9.30;99.90;;;;;;6275233;22;20012;-82
2023/04/01 05:26:56;;;;;;;34.05;12.40;;;10.20;99.90;;;;;;6277345;22;20404;-83
2023/04/01 05:29:21;;;;;;;40.60;13.60;;;9.30;99.90;;;;;;6276282;22;20012;-82
2023/04/01 05:31:47;;;;;;;39.50;13.18;;;10.20;99.90;;;;;;6275470;22;20018;-82
2023/04/01 05:34:13;;;;;;;41.60;13.50;;;9.30;99.90;;;;;;6276207;22;20386;-82
2023/04/01 05:36:39;;;;;;;36.85;12.80;;;9.30;99.90;;;;;;6276486;22;20018;-82
2023/04/01 05:39:05;;;;;;;37.78;12.95;;;9.30;99.90;;;;;;6274827;22;20015;-82
2023/04/01 05:41:30;;;;;;;41.75;12.93;;;9.40;99.90;;;;;;6275469;22;20089;-82
2023/04/01 05:43:56;;;;;;;33.30;11.73;;;9.30;99.90;;;;;;6274896;22;20020;-82
2023/04/01 05:46:21;;;;;;;38.17;12.88;;;9.30;99.90;;;;;;6274547;22;20508;-82
2023/04/01 05:48:47;;;;;;;32.25;12.23;;;9.40;99.90;;;;;;6276989;22;20022;-82
2023/04/01 05:51:16;;;;;;;37.20;12.13;;;9.30;99.90;;;;;;6275652;22;20411;-82
2023/04/01 05:53:42;;;;;;;38.72;12.32;;;9.30;99.90;;;;;;6274943;22;20355;-82
2023/04/01 05:56:09;;;;;;;30.38;11.95;;;9.40;99.90;;;;;;6274755;22;20012;-82
2023/04/01 05:58:35;;;;;;;31.58;11.73;;;9.40;99.90;;;;;;6277511;22;20051;-82
2023/04/01 06:01:07;;;;;;;31.92;12.05;;;9.30;99.90;;;;;;6276570;22;20012;-81
2023/04/01 06:03:32;;;;;;;32.88;12.05;;;9.40;99.90;;;;;;6277956;22;20026;-82
2023/04/01 06:05:58;;;;;;;40.80;13.23;;;9.40;99.90;;;;;;6276996;22;20031;-82
2023/04/01 06:08:25;;;;;;;36.22;12.90;;;9.40;99.90;;;;;;6276429;22;20039;-85
2023/04/01 06:11:18;;;;;;;34.80;12.57;;;9.40;99.90;;;;;;6281363;22;20022;-86
2023/04/01 06:14:23;;;;;;;34.70;12.55;;;9.40;99.90;;;;;;6275642;22;20032;-81
2023/04/01 06:17:04;;;;;;;39.85;12.60;;;9.40;99.90;;;;;;6275604;22;20020;-82
2023/04/01 06:19:43;;;;;;;34.35;12.48;;;9.40;99.90;;;;;;6274822;22;20016;-83
2023/04/01 06:22:26;;;;;;;33.78;12.57;;;9.50;99.90;;;;;;6276995;22;20038;-81
2023/04/01 06:25:14;;;;;;;31.13;11.32;;;9.50;99.90;;;;;;6276150;22;20030;-81
2023/04/01 06:27:46;;;;;;;33.95;12.90;;;9.50;99.90;;;;;;6275757;22;20023;-81
2023/04/01 06:30:30;;;;;;;32.00;11.88;;;9.50;99.90;;;;;;6277100;22;20054;-81
2023/04/01 06:32:56;;;;;;;;;;;9.50;99.90;;;;;;6277359;22;20011;-81
2023/04/01 06:35:55;;;;;;;29.98;11.82;;;9.50;99.90;;;;;;6276739;22;20357;-84
2023/04/01 06:38:48;;;;;;;32.00;12.48;;;9.50;99.90;;;;;;6273953;22;20016;-81
2023/04/01 06:41:37;;;;;;;36.10;12.23;;;9.60;99.90;;;;;;6275652;22;20447;-81
2023/04/01 06:44:31;;;;;;;29.25;12.02;;;9.60;99.90;;;;;;6276005;22;20015;-81
2023/04/01 06:47:11;;;;;;;25.75;11.32;;;9.70;99.90;;;;;;6275052;22;20095;-81
2023/04/01 06:49:57;;;;;;;27.05;10.77;;;9.70;99.90;;;;;;6276331;22;20011;-81
2023/04/01 06:52:45;;;;;;;27.15;10.70;;;9.60;99.90;;;;;;6275533;22;20016;-81
2023/04/01 06:55:43;;;;;;;30.48;11.68;;;9.60;99.90;;;;;;6273933;22;20062;-81
2023/04/01 06:58:33;;;;;;;34.08;11.65;;;9.70;99.90;;;;;;6266786;22;20086;-81
2023/04/01 07:01:03;;;;;;;30.73;11.52;;;10.10;99.90;;;;;;6275559;22;20007;-81
2023/04/01 07:03:38;;;;;;;28.67;10.52;;;9.70;99.90;;;;;;6273973;22;20320;-81
2023/04/01 07:06:09;;;;;;;25.15;10.23;;;10.10;99.90;;;;;;6274088;22;20018;-81
2023/04/01 07:08:40;;;;;;;25.35;10.43;;;9.80;99.90;;;;;;6273805;22;20093;-81
2023/04/01 07:11:26;;;;;;;26.73;10.38;;;10.40;99.90;;;;;;6299672;22;20012;-82
2023/04/01 07:13:59;;;;;;;22.60;9.60;;;9.90;99.90;;;;;;6275610;22;20015;-81
2023/04/01 07:16:37;;;;;;;21.42;9.25;;;10.70;99.90;;;;;;6274413;22;20363;-81
2023/04/01 07:19:12;;;;;;;23.73;9.32;;;9.90;99.90;;;;;;6275553;22;20087;-80
2023/04/01 07:21:51;;;;;;;24.30;9.15;;;10.80;99.90;;;;;;6273899;22;20470;-81
2023/04/01 07:24:27;;;;;;;19.77;8.45;;;10.00;99.90;;;;;;6273591;22;20019;-80
2023/04/01 07:26:55;;;;;;;22.52;8.90;;;9.90;99.90;;;;;;6274220;22;20027;-81
2023/04/01 07:29:21;;;;;;;21.27;8.85;;;10.00;99.90;;;;;;6274803;22;20416;-82
2023/04/01 07:32:08;;;;;;;22.48;9.20;;;9.90;99.90;;;;;;6275905;22;20022;-81
2023/04/01 07:34:54;;;;;;;20.90;8.60;;;10.00;99.90;;;;;;6280443;22;20016;-82
2023/04/01 07:37:36;;;;;;;21.38;9.57;;;9.90;99.90;;;;;;6278727;22;20020;-81
2023/04/01 07:40:34;;;;;;;22.27;9.00;;;10.00;99.90;;;;;;6275668;22;20382;-82
2023/04/01 07:43:03;;;;;;;24.17;9.55;;;10.00;99.90;;;;;;6277846;22;20047;-81
2023/04/01 07:45:41;;;;;;;25.10;9.95;;;10.00;99.90;;;;;;6276770;22;20012;-81
2023/04/01 07:48:10;;;;;;;26.88;10.85;;;10.20;99.90;;;;;;6274113;22;20016;-82
2023/04/01 07:50:55;;;;;;;28.17;11.57;;;10.00;99.90;;;;;;6275584;22;20050;-82
2023/04/01 07:53:37;;;;;;;27.17;9.93;;;10.10;99.90;;;;;;6275554;22;20472;-82
2023/04/01 07:56:10;;;;;;;27.10;10.13;;;10.00;99.90;;;;;;6273390;22;20019;-82
2023/04/01 07:58:45;;;;;;;25.15;10.20;;;10.00;99.90;;;;;;6276244;22;20069;-82
2023/04/01 08:01:36;;;;;;;25.08;10.05;;;10.10;99.90;;;;;;6273615;22;20015;-81
2023/04/01 08:04:20;;;;;;;19.92;8.73;;;10.00;99.90;;;;;;6274663;22;20011;-81
2023/04/01 08:06:59;;;;;;;21.30;8.45;;;10.10;99.90;;;;;;6273773;22;20019;-82
2023/04/01 08:09:43;;;;;;;20.27;8.18;;;10.20;99.90;;;;;;6276069;22;20008;-82
2023/04/01 08:12:28;;;;;;;20.10;7.35;;;10.30;99.90;;;;;;6273894;22;20391;-82
2023/04/01 08:15:28;;;;;;;18.60;7.47;;;10.20;99.90;;;;;;6273971;22;20448;-82
2023/04/01 08:18:19;;;;;;;19.75;6.55;;;10.30;99.90;;;;;;6273291;22;20394;-82
2023/04/01 08:20:50;;;;;;;16.08;6.25;;;10.30;99.90;;;;;;6273854;22;20016;-82
2023/04/01 08:23:22;;;;;;;18.52;6.28;;;10.40;99.90;;;;;;6275398;22;20008;-82
2023/04/01 08:26:04;;;;;;;16.58;6.13;;;10.40;99.90;;;;;;6274854;22;20043;-82
2023/04/01 08:28:37;;;;;;;15.80;5.22;;;10.40;99.90;;;;;;6273668;22;20011;-82
2023/04/01 08:31:09;;;;;;;14.85;4.78;;;10.70;99.90;;;;;;6274300;22;20675;-82
2023/04/01 08:33:36;;;;;;;12.80;4.50;;;10.50;99.90;;;;;;6277071;22;20316;-83
2023/04/01 08:36:13;;;;;;;11.38;4.30;;;10.50;99.90;;;;;;6276800;22;20018;-82
2023/04/01 08:38:55;;;;;;;10.73;4.20;;;10.40;99.90;;;;;;6274755;22;20027;-82
2023/04/01 08:41:46;;;;;;;12.43;4.30;;;10.50;99.90;;;;;;6277171;22;20019;-82
2023/04/01 08:44:30;;;;;;;11.00;4.00;;;10.60;99.90;;;;;;6275322;22;20470;-82
2023/04/01 08:47:14;;;;;;;;;;;10.60;99.90;;;;;;6275801;22;20012;-82
2023/04/01 08:50:06;;;;;;;10.50;3.47;;;10.80;99.90;;;;;;6275418;22;19945;-82
2023/04/01 08:52:50;;;;;;;8.02;2.72;;;10.80;99.90;;;;;;6275268;22;20023;-82
2023/04/01 08:55:28;;;;;;;8.43;2.60;;;10.70;99.90;;;;;;6275072;22;20020;-83
2023/04/01 08:58:21;;;;;;;7.40;2.60;;;10.70;99.90;;;;;;6277321;22;20022;-82
2023/04/01 09:01:17;;;;;;;9.13;2.90;;;10.70;99.90;;;;;;6277059;22;20016;-83
2023/04/01 09:04:01;;;;;;;8.80;3.15;;;10.70;99.90;;;;;;6275541;22;20020;-85
2023/04/01 09:07:04;;;;;;;9.80;3.53;;;10.70;99.90;;;;;;6275393;22;20020;-86
2023/04/01 09:09:52;;;;;;;8.75;3.38;;;10.60;99.90;;;;;;6278948;22;20077;-82
2023/04/01 09:12:25;;;;;;;9.52;3.80;;;10.60;99.90;;;;;;6277612;22;20022;-84
2023/04/01 09:15:40;;;;;;;10.18;3.88;;;11.40;99.90;;;;;;6287223;22;20027;-84
2023/04/01 09:18:30;;;;;;;9.85;4.10;;;10.60;99.90;;;;;;6260900;22;20324;-83
2023/04/01 09:21:14;;;;;;;10.80;4.20;;;11.20;99.90;;;;;;6277319;22;20023;-83
2023/04/01 09:23:43;;;;;;;10.63;4.85;;;10.80;99.90;;;;;;6275197;22;20015;-84
2023/04/01 09:26:17;;;;;;;11.60;5.25;;;10.70;99.90;;;;;;6277183;22;20114;-83
2023/04/01 09:29:10;;;;;;;11.15;5.03;;;10.60;99.90;;;;;;6274934;22;20021;-83
2023/04/01 09:31:52;;;;;;;11.77;5.50;;;11.20;99.90;;;;;;6275137;22;20022;-83
2023/04/01 09:34:42;;;;;;;12.15;4.97;;;10.70;99.90;;;;;;6276244;22;20023;-82
2023/04/01 09:37:28;;;;;;;12.18;5.50;;;10.70;99.90;;;;;;6273937;22;20509;-82
2023/04/01 09:40:11;;;;;;;11.85;5.38;;;10.80;99.90;;;;;;6255151;22;20074;-82
2023/04/01 09:42:55;;;;;;;11.68;5.47;;;10.90;99.90;;;;;;6283594;22;20070;-83
2023/04/01 09:45:30;;;;;;;11.95;5.30;;;10.80;99.90;;;;;;6276116;22;20455;-83
2023/04/01 09:48:02;;;;;;;12.90;5.47;;;10.80;99.90;;;;;;6275328;22;20363;-82
2023/04/01 09:50:42;;;;;;;10.77;4.93;;;10.80;99.90;;;;;;6275858;22;20070;-82
2023/04/01 09:53:24;;;;;;;11.82;5.55;;;10.80;99.90;;;;;;6273942;22;20018;-81
2023/04/01 09:56:08;;;;;;;11.13;5.05;;;10.90;99.90;;;;;;6276542;22;20020;-82
2023/04/01 09:59:12;;;;;;;12.68;5.32;;;10.90;99.90;;;;;;6275103;22;20335;-82
2023/04/01 10:02:21;;;;;;;11.00;5.22;;;10.90;99.90;;;;;;6276991;22;20081;-85
2023/04/01 10:05:05;;;;;;;12.10;5.95;;;10.90;99.90;;;;;;6274927;22;20064;-83
2023/04/01 10:08:05;;;;;;;11.07;5.10;;;11.00;99.90;;;;;;6276542;22;20015;-83
2023/04/01 10:10:34;;;;;;;10.80;4.80;;;11.00;99.90;;;;;;6276374;22;20352;-83
2023/04/01 10:13:13;;;;;;;10.65;4.20;;;11.10;99.90;;;;;;6274306;22;20016;-83
2023/04/01 10:16:03;;;;;;;10.85;4.93;;;11.10;99.90;;;;;;6277310;22;20016;-82
2023/04/01 10:18:59;;;;;;;10.65;5.03;;;11.10;99.90;;;;;;6274371;22;20098;-82
2023/04/01 10:21:54;;;;;;;11.30;5.00;;;11.30;99.90;;;;;;6274724;22;20020;-82
2023/04/01 10:24:38;;;;;;;10.02;5.07;;;11.30;99.90;;;;;;6247894;22;20015;-81
2023/04/01 10:27:21;;;;;;;10.50;4.75;;;11.30;99.90;;;;;;6274176;22;20022;-83
2023/04/01 10:30:06;;;;;;;11.07;4.97;;;11.40;99.90;;;;;;6276028;22;20467;-83
2023/04/01 10:32:53;;;;;;;10.45;4.72;;;11.50;99.90;;;;;;6276115;22;20083;-82
2023/04/01 10:35:24;;;;;;;10.65;4.57;;;11.80;99.90;;;;;;6276238;22;20022;-83
2023/04/01 10:37:56;;;;;;;10.88;5.13;;;11.50;99.90;;;;;;6276500;22;20146;-83
2023/04/01 10:40:34;;;;;;;9.65;4.47;;;11.50;99.90;;;;;;6295530;22;20451;-83
2023/04/01 10:43:21;;;;;;;10.23;4.72;;;11.50;99.90;;;;;;6276619;22;20047;-82
2023/04/01 10:46:24;;;;;;;11.50;4.63;;;11.50;99.90;;;;;;6276565;22;20016;-82
2023/04/01 10:49:10;;;;;;;9.95;4.32;;;11.50;99.90;;;;;;6277278;22;20022;-83
2023/04/01 10:51:59;;;;;;;10.15;4.82;;;11.60;99.90;;;;;;6274021;22;20019;-83
2023/04/01 10:54:28;;;;;;;10.95;4.80;;;11.60;99.90;;;;;;6276216;22;20096;-84
2023/04/01 10:57:07;;;;;;;10.48;4.70;;;11.50;99.90;;;;;;6274060;22;20019;-83
2023/04/01 11:00:08;;;;;;;10.70;4.70;;;11.50;99.90;;;;;;6273422;22;20019;-83
2023/04/01 11:02:56;;;;;;;10.00;4.78;;;11.60;99.90;;;;;;6274277;22;20085;-82
2023/04/01 11:05:53;;;;;;;10.88;4.72;;;11.50;99.90;;;;;;6275888;22;20018;-82
2023/04/01 11:08:52;;;;;;;11.95;6.00;;;11.60;99.90;;;;;;6276140;22;20039;-83
2023/04/01 11:12:03;;;;;;;11.20;6.00;;;11.60;99.90;;;;;;6276356;22;20662;-82
2023/04/01 11:14:49;;;;;;;10.57;5.63;;;11.60;99.90;;;;;;6272969;22;20324;-83
2023/04/01 11:17:57;;;;;;;12.30;6.60;;;11.80;99.90;;;;;;6273919;22;20016;-82
2023/04/01 11:20:45;;;;;;;12.88;6.93;;;11.70;99.90;;;;;;6273980;22;20099;-82
2023/04/01 11:23:42;;;;;;;12.48;7.13;;;11.70;99.90;;;;;;6274012;22;20054;-82
2023/04/01 11:26:14;;;;;;;12.40;6.80;;;12.00;99.90;;;;;;6275955;22;20011;-82
2023/04/01 11:29:01;;;;;;;12.00;6.60;;;12.20;99.90;;;;;;6275663;22;20027;-82
2023/04/01 11:31:34;;;;;;;12.15;6.65;;;12.40;99.90;;;;;;6274390;22;20041;-83
2023/04/01 11:34:24;;;;;;;12.95;7.50;;;13.20;99.90;;;;;;6273250;22;20158;-83
2023/04/01 11:37:19;;;;;;;13.82;7.85;;;12.40;99.90;;;;;;6276347;22;20016;-82
2023/04/01 11:40:24;;;;;;;13.23;7.95;;;12.50;99.90;;;;;;6230823;22;20012;-82
2023/04/01 11:43:15;;;;;;;12.25;6.55;;;12.50;99.90;;;;;;6273742;22;20390;-83
2023/04/01 11:46:12;;;;;;;10.68;5.43;;;12.40;99.90;;;;;;6274204;22;20443;-83
2023/04/01 11:48:44;;;;;;;9.82;5.22;;;11.90;99.90;;;;;;6275755;22;20070;-82
2023/04/01 11:51:22;;;;;;;9.15;4.55;;;11.70;99.90;;;;;;6275499;22;20008;-82
2023/04/01 11:54:13;;;;;;;9.45;4.63;;;12.40;99.90;;;;;;6274229;22;20055;-82
2023/04/01 11:56:50;;;;;;;10.07;5.03;;;11.10;99.90;;;;;;6275071;22;20420;-82
2023/04/01 12:00:03;;;;;;;9.85;4.80;;;11.00;99.90;;;;;;6275693;22;20016;-82
2023/04/01 12:02:45;;;;;;;9.65;4.47;;;10.90;99.90;;;;;;6256776;22;20023;-82
2023/04/01 12:05:28;;;;;;;11.18;4.43;;;10.80;99.90;;;;;;6277220;22;20439;-82
2023/04/01 12:08:24;;;;;;;10.68;4.95;;;10.70;99.90;;;;;;6280274;22;20015;-83
2023/04/01 12:11:21;;;;;;;9.45;4.40;;;10.60;99.90;;;;;;6276494;22;20016;-82
2023/04/01 12:13:49;;;;;;;9.48;4.50;;;10.60;99.90;;;;;;6277788;22;20011;-82
2023/04/01 12:16:51;;;;;;;9.50;4.28;;;10.60;99.90;;;;;;6280483;22;20535;-82
2023/04/01 12:19:41;;;;;;;8.60;3.90;;;10.50;99.90;;;;;;6277810;22;20086;-82
2023/04/01 12:22:29;;;;;;;8.85;3.92;;;11.30;99.90;;;;;;6276003;22;20130;-82
2023/04/01 12:25:07;;;;;;;9.20;4.10;;;10.50;99.90;;;;;;6277339;22;20019;-82
2023/04/01 12:27:39;;;;;;;8.77;3.90;;;10.40;99.90;;;;;;6275880;22;20023;-83
2023/04/01 12:30:20;;;;;;;9.80;4.00;;;10.30;99.90;;;;;;6276993;22;20007;-83
2023/04/01 12:33:10;;;;;;;9.75;4.35;;;10.40;99.90;;;;;;6278125;22;20019;-83
2023/04/01 12:36:03;;;;;;;8.55;3.90;;;10.30;99.90;;;;;;6278009;22;20016;-83
2023/04/01 12:38:54;;;;;;;9.57;4.30;;;10.20;99.90;;;;;;6277603;22;20023;-82
2023/04/01 12:41:36;;;;;;;10.20;4.18;;;10.20;99.90;;;;;;6278580;22;20012;-83
2023/04/01 12:44:09;;;;;;;9.00;4.32;;;10.20;99.90;;;;;;6275194;22;20744;-83
2023/04/01 12:47:14;;;;;;;9.40;4.17;;;10.20;99.90;;;;;;6275930;22;20016;-82
2023/04/01 12:49:50;;;;;;;;;;;10.10;99.90;;;;;;6279056;22;20468;-83
2023/04/01 12:52:26;;;;;;;9.05;4.00;;;10.00;99.90;;;;;;6278700;22;20006;-83
2023/04/01 12:54:59;;;;;;;8.90;4.38;;;10.10;99.90;;;;;;6276420;22;20082;-83
2023/04/01 12:57:54;;;;;;;9.30;4.50;;;10.10;99.90;;;;;;6275883;22;20022;-82
2023/04/01 13:00:38;;;;;;;8.32;3.72;;;10.10;99.90;;;;;;6275068;22;20015;-82
2023/04/01 13:03:10;;;;;;;8.77;4.00;;;10.50;99.90;;;;;;6277213;22;20023;-82
2023/04/01 13:05:57;;;;;;;8.43;3.60;;;10.00;99.90;;;;;;6275415;22;20090;-83
2023/04/01 13:08:36;;;;;;;8.95;4.10;;;10.00;99.90;;;;;;6275325;22;20035;-83
2023/04/01 13:11:21;;;;;;;9.45;4.03;;;9.90;99.90;;;;;;6277340;22;20027;-83
2023/04/01 13:14:08;;;;;;;9.27;4.47;;;9.90;99.90;;;;;;6275030;22;20051;-83
2023/04/01 13:16:57;;;;;;;10.00;4.78;;;9.90;99.90;;;;;;6275201;22;20450;-84
2023/04/01 13:19:51;;;;;;;9.05;4.32;;;9.80;99.90;;;;;;6274382;22;20022;-83
2023/04/01 13:22:49;;;;;;;9.55;4.40;;;9.70;99.90;;;;;;6275108;22;20020;-82
2023/04/01 13:25:42;;;;;;;10.80;4.97;;;9.60;99.90;;;;;;6270084;22;20117;-83
2023/04/01 13:28:37;;;;;;;9.60;4.57;;;9.60;99.90;;;;;;6276256;22;20008;-82
2023/04/01 13:31:08;;;;;;;9.65;4.60;;;9.50;99.90;;;;;;6274565;22;20463;-83
2023/04/01 13:33:46;;;;;;;9.93;4.70;;;9.40;99.90;;;;;;6276516;22;20038;-82